sensor_id;sensor_type;location;lat;lon;timestamp;pressure;altitude;pressure_sealevel;temperature;humidity
24996;BME280;13016;52.162;21.034;2023-03-01T01:25:15;101697.09;;;3.88;50.64
24996;BME280;13016;52.162;21.034;2023-03-01T01:28:50;101696.42;;;3.86;51.00
24996;BME280;13016;52.162;21.034;2023-03-01T01:32:41;101689.95;;;4.00;50.75
24996;BME280;13016;52.162;21.034;2023-03-01T01:39:55;101685.42;;;4.12;50.68
24996;BME280;13016;52.162;21.034;2023-03-01T01:42:55;101690.01;;;4.10;50.52
24996;BME280;13016;52.162;21.034;2023-03-01T02:12:23;101669.52;;;4.00;51.04
24996;BME280;13016;52.162;21.034;2023-03-01T02:18:13;101670.95;;;3.98;50.76
24996;BME280;13016;52.162;21.034;2023-03-01T03:06:49;101653.50;;;3.57;52.13
24996;BME280;13016;52.162;21.034;2023-03-01T03:17:41;101621.95;;;3.55;52.62
24996;BME280;13016;52.162;21.034;2023-03-01T03:20:32;101616.35;;;3.55;52.50
24996;BME280;13016;52.162;21.034;2023-03-01T03:26:10;101615.71;;;3.50;52.68
24996;BME280;13016;52.162;21.034;2023-03-01T03:31:38;101608.95;;;3.62;52.60
24996;BME280;13016;52.162;21.034;2023-03-01T03:37:07;101605.33;;;3.58;52.58
24996;BME280;13016;52.162;21.034;2023-03-01T03:50:34;101602.56;;;3.57;52.35
24996;BME280;13016;52.162;21.034;2023-03-01T03:53:39;101610.23;;;3.56;52.17
24996;BME280;13016;52.162;21.034;2023-03-01T03:56:33;101607.56;;;3.60;52.15
24996;BME280;13016;52.162;21.034;2023-03-01T03:59:49;101598.44;;;3.51;52.16
24996;BME280;13016;52.162;21.034;2023-03-01T04:02:51;101585.61;;;3.45;52.28
24996;BME280;13016;52.162;21.034;2023-03-01T04:14:04;101576.35;;;3.46;52.22
24996;BME280;13016;52.162;21.034;2023-03-01T04:17:02;101577.94;;;3.44;52.31
24996;BME280;13016;52.162;21.034;2023-03-01T04:25:13;101586.38;;;3.53;52.54
24996;BME280;13016;52.162;21.034;2023-03-01T04:28:09;101588.11;;;3.54;52.33
24996;BME280;13016;52.162;21.034;2023-03-01T04:41:21;101584.23;;;3.57;52.36
24996;BME280;13016;52.162;21.034;2023-03-01T04:44:09;101578.33;;;3.54;52.23
24996;BME280;13016;52.162;21.034;2023-03-01T04:47:20;101565.85;;;3.34;52.47
24996;BME280;13016;52.162;21.034;2023-03-01T04:49:51;101559.08;;;3.33;52.69
24996;BME280;13016;52.162;21.034;2023-03-01T04:52:37;101561.52;;;3.32;52.88
24996;BME280;13016;52.162;21.034;2023-03-01T04:58:10;101559.13;;;3.41;52.95
24996;BME280;13016;52.162;21.034;2023-03-01T05:21:41;101559.65;;;3.42;52.78
24996;BME280;13016;52.162;21.034;2023-03-01T05:34:57;101579.73;;;3.54;52.32
24996;BME280;13016;52.162;21.034;2023-03-01T05:51:05;101596.30;;;3.69;52.43
24996;BME280;13016;52.162;21.034;2023-03-01T05:53:31;101593.99;;;3.83;52.27
24996;BME280;13016;52.162;21.034;2023-03-01T05:55:56;101592.04;;;3.86;52.03
24996;BME280;13016;52.162;21.034;2023-03-01T06:00:57;101595.59;;;4.05;52.01
24996;BME280;13016;52.162;21.034;2023-03-01T06:03:22;101601.04;;;4.15;51.67
24996;BME280;13016;52.162;21.034;2023-03-01T06:06:03;101600.01;;;4.13;51.33
24996;BME280;13016;52.162;21.034;2023-03-01T06:08:44;101594.65;;;4.10;51.49
24996;BME280;13016;52.162;21.034;2023-03-01T06:11:10;101591.75;;;4.05;51.32
24996;BME280;13016;52.162;21.034;2023-03-01T06:13:35;101593.23;;;4.00;51.69
24996;BME280;13016;52.162;21.034;2023-03-01T06:16:31;101591.92;;;3.93;51.81
24996;BME280;13016;52.162;21.034;2023-03-01T06:19:13;101594.93;;;4.02;52.34
24996;BME280;13016;52.162;21.034;2023-03-01T06:24:29;101594.45;;;4.33;51.91
24996;BME280;13016;52.162;21.034;2023-03-01T06:32:43;101598.27;;;4.67;51.54
24996;BME280;13016;52.162;21.034;2023-03-01T06:45:30;101596.91;;;5.29;50.08
24996;BME280;13016;52.162;21.034;2023-03-01T06:59:28;101596.12;;;6.23;48.34
24996;BME280;13016;52.162;21.034;2023-03-01T07:18:48;101602.14;;;7.15;46.10
24996;BME280;13016;52.162;21.034;2023-03-01T07:21:38;101597.13;;;7.19;45.84
24996;BME280;13016;52.162;21.034;2023-03-01T07:24:39;101595.79;;;7.29;45.66
24996;BME280;13016;52.162;21.034;2023-03-01T07:47:53;101574.61;;;8.02;44.00
24996;BME280;13016;52.162;21.034;2023-03-01T07:50:59;101582.25;;;8.17;44.26
24996;BME280;13016;52.162;21.034;2023-03-01T07:53:45;101580.41;;;8.31;44.00
24996;BME280;13016;52.162;21.034;2023-03-01T08:02:14;101580.44;;;8.62;43.79
24996;BME280;13016;52.162;21.034;2023-03-01T08:10:36;101575.73;;;9.06;43.37
24996;BME280;13016;52.162;21.034;2023-03-01T08:13:19;101577.38;;;9.42;42.62
24996;BME280;13016;52.162;21.034;2023-03-01T08:16:06;101579.65;;;9.84;42.24
24996;BME280;13016;52.162;21.034;2023-03-01T08:19:21;101580.41;;;10.14;41.44
24996;BME280;13016;52.162;21.034;2023-03-01T08:22:26;101587.75;;;10.55;40.37
24996;BME280;13016;52.162;21.034;2023-03-01T08:25:39;101589.77;;;10.57;39.75
24996;BME280;13016;52.162;21.034;2023-03-01T08:28:31;101585.94;;;10.93;39.63
24996;BME280;13016;52.162;21.034;2023-03-01T08:34:19;101582.77;;;11.48;38.26
24996;BME280;13016;52.162;21.034;2023-03-01T08:37:04;101583.97;;;11.83;37.78
24996;BME280;13016;52.162;21.034;2023-03-01T08:40:19;101582.45;;;12.15;37.05
24996;BME280;13016;52.162;21.034;2023-03-01T08:43:14;101579.91;;;12.23;36.48
24996;BME280;13016;52.162;21.034;2023-03-01T08:48:40;101576.24;;;12.30;37.13
24996;BME280;13016;52.162;21.034;2023-03-01T08:51:14;101577.31;;;12.75;36.74
24996;BME280;13016;52.162;21.034;2023-03-01T08:54:19;101579.30;;;13.15;35.78
24996;BME280;13016;52.162;21.034;2023-03-01T08:57:22;101578.54;;;12.89;35.41
24996;BME280;13016;52.162;21.034;2023-03-01T09:00:11;101586.08;;;13.11;35.78
24996;BME280;13016;52.162;21.034;2023-03-01T09:03:09;101587.54;;;13.37;35.45
24996;BME280;13016;52.162;21.034;2023-03-01T09:05:36;101589.16;;;13.37;35.35
24996;BME280;13016;52.162;21.034;2023-03-01T09:08:38;101588.00;;;13.18;35.78
24996;BME280;13016;52.162;21.034;2023-03-01T09:11:08;101585.49;;;13.32;35.38
24996;BME280;13016;52.162;21.034;2023-03-01T09:14:14;101584.86;;;13.50;35.66
24996;BME280;13016;52.162;21.034;2023-03-01T09:16:51;101587.81;;;13.64;35.22
24996;BME280;13016;52.162;21.034;2023-03-01T09:19:24;101589.81;;;13.60;35.08
24996;BME280;13016;52.162;21.034;2023-03-01T09:24:35;101584.77;;;12.78;35.72
24996;BME280;13016;52.162;21.034;2023-03-01T09:56:13;101551.72;;;14.41;33.73
24996;BME280;13016;52.162;21.034;2023-03-01T10:11:59;101547.06;;;12.29;37.78
24996;BME280;13016;52.162;21.034;2023-03-01T10:17:55;101528.00;;;11.78;39.11
24996;BME280;13016;52.162;21.034;2023-03-01T10:20:54;101521.52;;;11.95;38.97
24996;BME280;13016;52.162;21.034;2023-03-01T10:24:08;101517.84;;;11.87;39.06
24996;BME280;13016;52.162;21.034;2023-03-01T10:40:25;101508.89;;;12.39;38.54
24996;BME280;13016;52.162;21.034;2023-03-01T10:59:20;101500.67;;;11.80;40.36
24996;BME280;13016;52.162;21.034;2023-03-01T11:07:46;101495.19;;;11.88;40.65
24996;BME280;13016;52.162;21.034;2023-03-01T11:21:39;101488.68;;;12.15;40.48
24996;BME280;13016;52.162;21.034;2023-03-01T11:24:50;101487.02;;;12.06;40.29
24996;BME280;13016;52.162;21.034;2023-03-01T11:27:53;101480.84;;;12.09;40.40
24996;BME280;13016;52.162;21.034;2023-03-01T11:31:02;101476.92;;;12.14;40.73
24996;BME280;13016;52.162;21.034;2023-03-01T11:34:13;101470.75;;;12.17;40.65
24996;BME280;13016;52.162;21.034;2023-03-01T11:37:02;101471.98;;;12.10;40.33
24996;BME280;13016;52.162;21.034;2023-03-01T11:43:36;101467.02;;;12.17;40.60
24996;BME280;13016;52.162;21.034;2023-03-01T11:52:37;101465.67;;;12.15;40.93
24996;BME280;13016;52.162;21.034;2023-03-01T11:58:49;101472.40;;;12.01;40.68
24996;BME280;13016;52.162;21.034;2023-03-01T12:07:25;101464.39;;;12.16;41.37
24996;BME280;13016;52.162;21.034;2023-03-01T12:13:48;101461.88;;;12.14;40.67
24996;BME280;13016;52.162;21.034;2023-03-01T12:20:00;101468.15;;;12.19;40.95
24996;BME280;13016;52.162;21.034;2023-03-01T12:23:08;101465.23;;;12.31;40.62
24996;BME280;13016;52.162;21.034;2023-03-01T12:26:10;101464.35;;;12.31;40.57
24996;BME280;13016;52.162;21.034;2023-03-01T12:29:23;101462.31;;;12.33;40.74
24996;BME280;13016;52.162;21.034;2023-03-01T12:32:54;101460.86;;;12.16;40.63
24996;BME280;13016;52.162;21.034;2023-03-01T13:02:39;101423.52;;;12.87;41.01
24996;BME280;13016;52.162;21.034;2023-03-01T14:18:31;101378.85;;;13.45;41.24
24996;BME280;13016;52.162;21.034;2023-03-01T14:23:59;101380.14;;;13.26;41.07
24996;BME280;13016;52.162;21.034;2023-03-01T14:26:25;101379.58;;;13.26;41.29
24996;BME280;13016;52.162;21.034;2023-03-01T14:28:51;101375.77;;;13.24;41.22
24996;BME280;13016;52.162;21.034;2023-03-01T14:31:37;101373.80;;;13.28;41.50
24996;BME280;13016;52.162;21.034;2023-03-01T14:34:05;101370.81;;;13.24;41.78
24996;BME280;13016;52.162;21.034;2023-03-01T14:36:36;101371.15;;;13.24;41.52
24996;BME280;13016;52.162;21.034;2023-03-01T14:39:15;101366.17;;;13.34;41.64
24996;BME280;13016;52.162;21.034;2023-03-01T14:41:43;101359.86;;;13.36;41.83
24996;BME280;13016;52.162;21.034;2023-03-01T14:46:45;101356.98;;;13.34;41.64
24996;BME280;13016;52.162;21.034;2023-03-01T14:49:12;101358.27;;;13.36;41.68
24996;BME280;13016;52.162;21.034;2023-03-01T14:51:41;101358.96;;;13.33;41.32
24996;BME280;13016;52.162;21.034;2023-03-01T14:54:41;101355.13;;;13.26;41.62
24996;BME280;13016;52.162;21.034;2023-03-01T14:57:26;101351.73;;;13.36;41.53
24996;BME280;13016;52.162;21.034;2023-03-01T14:59:54;101346.23;;;13.26;41.70
24996;BME280;13016;52.162;21.034;2023-03-01T15:02:28;101339.14;;;13.27;41.60
24996;BME280;13016;52.162;21.034;2023-03-01T15:04:56;101337.77;;;13.17;41.46
24996;BME280;13016;52.162;21.034;2023-03-01T15:07:34;101341.12;;;13.11;41.83
24996;BME280;13016;52.162;21.034;2023-03-01T15:10:00;101340.05;;;13.17;41.88
24996;BME280;13016;52.162;21.034;2023-03-01T15:14:56;101341.73;;;13.13;41.55
24996;BME280;13016;52.162;21.034;2023-03-01T15:17:33;101340.83;;;13.00;41.81
24996;BME280;13016;52.162;21.034;2023-03-01T15:20:18;101338.00;;;13.03;42.10
24996;BME280;13016;52.162;21.034;2023-03-01T15:22:45;101341.17;;;13.04;41.90
24996;BME280;13016;52.162;21.034;2023-03-01T15:27:58;101342.11;;;12.89;42.20
24996;BME280;13016;52.162;21.034;2023-03-01T15:30:32;101336.23;;;12.90;42.13
24996;BME280;13016;52.162;21.034;2023-03-01T15:33:33;101331.31;;;12.86;42.14
24996;BME280;13016;52.162;21.034;2023-03-01T15:36:33;101326.41;;;12.85;42.21
24996;BME280;13016;52.162;21.034;2023-03-01T15:44:34;101324.52;;;12.39;43.01
24996;BME280;13016;52.162;21.034;2023-03-01T15:47:01;101326.23;;;12.37;43.03
24996;BME280;13016;52.162;21.034;2023-03-01T15:49:37;101328.20;;;12.29;43.07
24996;BME280;13016;52.162;21.034;2023-03-01T15:57:20;101331.00;;;12.07;43.51
24996;BME280;13016;52.162;21.034;2023-03-01T15:59:45;101331.34;;;12.07;43.58
24996;BME280;13016;52.162;21.034;2023-03-01T16:02:11;101332.88;;;12.12;43.43
24996;BME280;13016;52.162;21.034;2023-03-01T16:04:37;101328.46;;;12.11;43.44
24996;BME280;13016;52.162;21.034;2023-03-01T16:07:02;101330.83;;;12.07;43.45
24996;BME280;13016;52.162;21.034;2023-03-01T16:09:36;101333.80;;;12.07;43.81
24996;BME280;13016;52.162;21.034;2023-03-01T16:12:15;101325.41;;;12.12;43.45
24996;BME280;13016;52.162;21.034;2023-03-01T16:14:44;101322.17;;;12.03;43.49
24996;BME280;13016;52.162;21.034;2023-03-01T16:17:22;101318.77;;;11.97;43.73
24996;BME280;13016;52.162;21.034;2023-03-01T16:19:48;101318.59;;;11.91;43.77
24996;BME280;13016;52.162;21.034;2023-03-01T16:22:14;101319.55;;;11.86;43.84
24996;BME280;13016;52.162;21.034;2023-03-01T16:24:44;101321.64;;;11.76;44.03
24996;BME280;13016;52.162;21.034;2023-03-01T16:27:09;101325.08;;;11.78;44.21
24996;BME280;13016;52.162;21.034;2023-03-01T16:29:35;101328.39;;;11.72;44.08
24996;BME280;13016;52.162;21.034;2023-03-01T16:32:06;101328.98;;;11.64;44.23
24996;BME280;13016;52.162;21.034;2023-03-01T16:34:31;101330.92;;;11.60;44.46
24996;BME280;13016;52.162;21.034;2023-03-01T16:37:13;101332.98;;;11.57;44.59
24996;BME280;13016;52.162;21.034;2023-03-01T16:39:43;101332.73;;;11.62;44.70
24996;BME280;13016;52.162;21.034;2023-03-01T16:42:21;101334.14;;;11.63;44.51
24996;BME280;13016;52.162;21.034;2023-03-01T16:44:47;101329.58;;;11.58;44.68
24996;BME280;13016;52.162;21.034;2023-03-01T16:47:19;101328.21;;;11.54;44.63
24996;BME280;13016;52.162;21.034;2023-03-01T16:49:52;101331.02;;;11.54;44.94
24996;BME280;13016;52.162;21.034;2023-03-01T16:52:20;101330.88;;;11.57;44.74
24996;BME280;13016;52.162;21.034;2023-03-01T17:00:38;101326.50;;;11.28;44.90
24996;BME280;13016;52.162;21.034;2023-03-01T17:03:04;101329.27;;;11.14;45.47
24996;BME280;13016;52.162;21.034;2023-03-01T17:05:29;101326.06;;;11.15;45.61
24996;BME280;13016;52.162;21.034;2023-03-01T17:07:54;101329.10;;;11.14;45.67
24996;BME280;13016;52.162;21.034;2023-03-01T17:10:19;101332.48;;;11.07;45.62
24996;BME280;13016;52.162;21.034;2023-03-01T17:12:48;101331.83;;;10.98;45.89
24996;BME280;13016;52.162;21.034;2023-03-01T17:15:16;101333.56;;;10.95;46.08
24996;BME280;13016;52.162;21.034;2023-03-01T17:17:41;101342.06;;;10.98;45.94
24996;BME280;13016;52.162;21.034;2023-03-01T17:20:16;101339.05;;;10.99;46.00
24996;BME280;13016;52.162;21.034;2023-03-01T17:23:04;101346.40;;;10.96;45.98
24996;BME280;13016;52.162;21.034;2023-03-01T17:25:30;101350.76;;;10.90;46.08
24996;BME280;13016;52.162;21.034;2023-03-01T17:27:57;101350.81;;;10.85;46.22
24996;BME280;13016;52.162;21.034;2023-03-01T17:33:24;101357.54;;;10.85;46.35
24996;BME280;13016;52.162;21.034;2023-03-01T17:35:49;101358.46;;;10.80;46.29
24996;BME280;13016;52.162;21.034;2023-03-01T17:38:19;101358.04;;;10.70;46.49
24996;BME280;13016;52.162;21.034;2023-03-01T17:41:05;101354.92;;;10.69;46.60
24996;BME280;13016;52.162;21.034;2023-03-01T17:43:34;101352.91;;;10.66;46.72
24996;BME280;13016;52.162;21.034;2023-03-01T17:46:12;101348.58;;;10.65;46.80
24996;BME280;13016;52.162;21.034;2023-03-01T17:57:14;101349.30;;;10.46;47.29
24996;BME280;13016;52.162;21.034;2023-03-01T18:14:23;101335.33;;;10.95;46.25
24996;BME280;13016;52.162;21.034;2023-03-01T18:19:55;101330.89;;;10.51;46.50
24996;BME280;13016;52.162;21.034;2023-03-01T18:22:30;101322.90;;;10.36;47.02
24996;BME280;13016;52.162;21.034;2023-03-01T18:37:58;101321.91;;;10.84;46.44
24996;BME280;13016;52.162;21.034;2023-03-01T18:43:08;101322.28;;;10.54;46.38
24996;BME280;13016;52.162;21.034;2023-03-01T18:45:37;101319.61;;;10.35;46.74
24996;BME280;13016;52.162;21.034;2023-03-01T18:51:05;101318.95;;;9.98;47.70
24996;BME280;13016;52.162;21.034;2023-03-01T18:56:31;101314.98;;;9.80;48.14
24996;BME280;13016;52.162;21.034;2023-03-01T19:22:43;101332.00;;;10.14;47.87
24996;BME280;13016;52.162;21.034;2023-03-01T19:25:15;101341.35;;;10.18;47.12
24996;BME280;13016;52.162;21.034;2023-03-01T19:28:03;101344.06;;;9.96;47.38
24996;BME280;13016;52.162;21.034;2023-03-01T19:33:27;101349.77;;;9.57;48.42
24996;BME280;13016;52.162;21.034;2023-03-01T19:38:37;101355.05;;;9.27;48.88
24996;BME280;13016;52.162;21.034;2023-03-01T19:41:13;101355.64;;;9.12;49.34
24996;BME280;13016;52.162;21.034;2023-03-01T19:44:00;101356.78;;;9.06;49.70
24996;BME280;13016;52.162;21.034;2023-03-01T19:46:26;101353.76;;;9.02;49.75
24996;BME280;13016;52.162;21.034;2023-03-01T19:48:51;101350.33;;;8.95;49.98
24996;BME280;13016;52.162;21.034;2023-03-01T19:51:21;101351.39;;;8.95;50.18
24996;BME280;13016;52.162;21.034;2023-03-01T19:54:07;101356.21;;;8.88;50.33
24996;BME280;13016;52.162;21.034;2023-03-01T20:01:48;101357.30;;;8.93;50.28
24996;BME280;13016;52.162;21.034;2023-03-01T20:04:23;101355.75;;;8.87;50.43
24996;BME280;13016;52.162;21.034;2023-03-01T20:07:06;101355.90;;;8.88;50.52
24996;BME280;13016;52.162;21.034;2023-03-01T20:09:48;101358.02;;;8.83;50.41
24996;BME280;13016;52.162;21.034;2023-03-01T20:12:18;101359.73;;;8.80;50.60
24996;BME280;13016;52.162;21.034;2023-03-01T20:14:47;101358.35;;;8.79;50.62
24996;BME280;13016;52.162;21.034;2023-03-01T20:17:13;101354.00;;;8.78;50.61
24996;BME280;13016;52.162;21.034;2023-03-01T20:19:38;101355.14;;;8.76;50.52
24996;BME280;13016;52.162;21.034;2023-03-01T20:22:04;101357.69;;;8.69;50.71
24996;BME280;13016;52.162;21.034;2023-03-01T20:24:30;101358.30;;;8.66;50.96
24996;BME280;13016;52.162;21.034;2023-03-01T20:27:02;101357.88;;;8.63;50.99
24996;BME280;13016;52.162;21.034;2023-03-01T20:29:28;101356.99;;;8.64;51.00
24996;BME280;13016;52.162;21.034;2023-03-01T20:32:13;101358.32;;;8.61;51.06
24996;BME280;13016;52.162;21.034;2023-03-01T20:34:59;101360.49;;;8.64;51.00
24996;BME280;13016;52.162;21.034;2023-03-01T20:37:24;101362.44;;;8.64;51.08
24996;BME280;13016;52.162;21.034;2023-03-01T20:39:53;101363.23;;;8.61;51.09
24996;BME280;13016;52.162;21.034;2023-03-01T20:42:19;101362.20;;;8.61;51.09
24996;BME280;13016;52.162;21.034;2023-03-01T20:44:46;101364.95;;;8.58;51.11
24996;BME280;13016;52.162;21.034;2023-03-01T20:47:20;101363.63;;;8.51;51.09
24996;BME280;13016;52.162;21.034;2023-03-01T20:49:52;101361.75;;;8.45;51.29
24996;BME280;13016;52.162;21.034;2023-03-01T20:52:25;101359.42;;;8.46;51.42
24996;BME280;13016;52.162;21.034;2023-03-01T20:54:51;101362.27;;;8.45;51.27
24996;BME280;13016;52.162;21.034;2023-03-01T20:57:17;101362.02;;;8.37;51.48
24996;BME280;13016;52.162;21.034;2023-03-01T20:59:43;101360.25;;;8.22;51.86
24996;BME280;13016;52.162;21.034;2023-03-01T21:02:09;101359.73;;;8.23;52.07
24996;BME280;13016;52.162;21.034;2023-03-01T21:04:35;101358.95;;;8.20;52.01
24996;BME280;13016;52.162;21.034;2023-03-01T21:07:01;101355.80;;;8.13;52.21
24996;BME280;13016;52.162;21.034;2023-03-01T21:09:27;101353.08;;;8.11;52.27
24996;BME280;13016;52.162;21.034;2023-03-01T21:12:34;101351.10;;;8.12;52.35
24996;BME280;13016;52.162;21.034;2023-03-01T21:15:24;101355.11;;;8.09;52.41
24996;BME280;13016;52.162;21.034;2023-03-01T21:18:09;101349.92;;;7.96;52.72
24996;BME280;13016;52.162;21.034;2023-03-01T21:21:24;101352.76;;;8.00;52.84
24996;BME280;13016;52.162;21.034;2023-03-01T21:23:50;101355.48;;;7.97;52.89
24996;BME280;13016;52.162;21.034;2023-03-01T21:26:19;101353.02;;;7.98;52.99
24996;BME280;13016;52.162;21.034;2023-03-01T21:28:52;101351.23;;;7.98;52.97
24996;BME280;13016;52.162;21.034;2023-03-01T21:31:41;101349.38;;;8.01;53.01
24996;BME280;13016;52.162;21.034;2023-03-01T21:34:24;101352.55;;;8.01;52.92
24996;BME280;13016;52.162;21.034;2023-03-01T21:36:51;101349.09;;;8.00;52.86
24996;BME280;13016;52.162;21.034;2023-03-01T21:39:36;101346.17;;;7.97;53.00
24996;BME280;13016;52.162;21.034;2023-03-01T21:42:02;101342.11;;;7.94;52.96
24996;BME280;13016;52.162;21.034;2023-03-01T21:44:48;101340.66;;;7.90;53.12
24996;BME280;13016;52.162;21.034;2023-03-01T21:47:36;101339.15;;;7.88;53.26
24996;BME280;13016;52.162;21.034;2023-03-01T21:50:01;101338.89;;;7.85;53.39
24996;BME280;13016;52.162;21.034;2023-03-01T21:52:30;101341.27;;;7.83;53.35
24996;BME280;13016;52.162;21.034;2023-03-01T21:54:59;101345.31;;;7.77;53.39
24996;BME280;13016;52.162;21.034;2023-03-01T21:57:36;101346.85;;;7.73;53.57
24996;BME280;13016;52.162;21.034;2023-03-01T22:00:02;101346.16;;;7.73;53.72
24996;BME280;13016;52.162;21.034;2023-03-01T22:02:27;101345.84;;;7.77;53.64
24996;BME280;13016;52.162;21.034;2023-03-01T22:05:14;101344.75;;;7.73;53.56
24996;BME280;13016;52.162;21.034;2023-03-01T22:07:39;101346.39;;;7.71;53.78
24996;BME280;13016;52.162;21.034;2023-03-01T22:10:05;101344.20;;;7.73;53.63
24996;BME280;13016;52.162;21.034;2023-03-01T22:12:31;101345.77;;;7.74;53.60
24996;BME280;13016;52.162;21.034;2023-03-01T22:14:56;101344.08;;;7.72;53.56
24996;BME280;13016;52.162;21.034;2023-03-01T22:17:24;101340.85;;;7.69;53.73
24996;BME280;13016;52.162;21.034;2023-03-01T22:19:50;101337.24;;;7.66;53.62
24996;BME280;13016;52.162;21.034;2023-03-01T22:22:16;101328.77;;;7.58;53.72
24996;BME280;13016;52.162;21.034;2023-03-01T22:24:42;101326.08;;;7.54;53.91
24996;BME280;13016;52.162;21.034;2023-03-01T22:27:08;101323.63;;;7.54;54.05
24996;BME280;13016;52.162;21.034;2023-03-01T22:29:38;101315.61;;;7.47;54.11
24996;BME280;13016;52.162;21.034;2023-03-01T22:32:05;101313.05;;;7.50;54.13
24996;BME280;13016;52.162;21.034;2023-03-01T22:34:33;101316.09;;;7.53;54.07
24996;BME280;13016;52.162;21.034;2023-03-01T22:36:59;101319.08;;;7.48;54.00
24996;BME280;13016;52.162;21.034;2023-03-01T22:39:25;101319.17;;;7.46;54.01
24996;BME280;13016;52.162;21.034;2023-03-01T22:41:53;101315.59;;;7.42;54.18
24996;BME280;13016;52.162;21.034;2023-03-01T22:44:22;101316.15;;;7.36;54.24
24996;BME280;13016;52.162;21.034;2023-03-01T22:46:48;101319.18;;;7.35;54.52
24996;BME280;13016;52.162;21.034;2023-03-01T22:49:15;101324.42;;;7.41;54.58
24996;BME280;13016;52.162;21.034;2023-03-01T22:51:42;101326.27;;;7.43;54.40
24996;BME280;13016;52.162;21.034;2023-03-01T22:54:36;101323.69;;;7.42;54.20
24996;BME280;13016;52.162;21.034;2023-03-01T22:57:02;101324.62;;;7.35;54.41
24996;BME280;13016;52.162;21.034;2023-03-01T22:59:30;101318.63;;;7.30;54.39
24996;BME280;13016;52.162;21.034;2023-03-01T23:02:10;101319.20;;;7.23;54.65
24996;BME280;13016;52.162;21.034;2023-03-01T23:04:40;101320.58;;;7.24;54.93
24996;BME280;13016;52.162;21.034;2023-03-01T23:07:05;101321.27;;;7.24;55.00
24996;BME280;13016;52.162;21.034;2023-03-01T23:09:32;101328.63;;;7.25;55.02
24996;BME280;13016;52.162;21.034;2023-03-01T23:12:02;101326.46;;;7.27;55.11
24996;BME280;13016;52.162;21.034;2023-03-01T23:14:30;101329.17;;;7.30;55.08
24996;BME280;13016;52.162;21.034;2023-03-01T23:16:56;101334.48;;;7.28;55.01
24996;BME280;13016;52.162;21.034;2023-03-01T23:19:21;101334.58;;;7.25;54.98
24996;BME280;13016;52.162;21.034;2023-03-01T23:21:47;101334.58;;;7.20;55.08
24996;BME280;13016;52.162;21.034;2023-03-01T23:48:00;101319.93;;;7.06;55.39
